Time;durP1;ratioP1;P1;durP2;ratioP2;P2;SDS_P1;SDS_P2;PMS_P1;PMS_P2;Temp;Humidity;BMP_temperature;BMP_pressure;BME280_temperature;BME280_humidity;BME280_pressure;Samples;Min_cycle;Max_cycle;Signal;HPM_P1;HPM_P2
2022/09/17 00:00:50;;;;;;;0.60;0.60;;;;;;;;;;5117006;28;20203;-65
2022/09/17 00:03:17;;;;;;;1.40;0.70;;;;;;;;;;5116541;28;20322;-65
2022/09/17 00:05:45;;;;;;;0.80;0.65;;;;;;;;;;5120721;28;20286;-65
2022/09/17 00:08:15;;;;;;;0.70;0.70;;;;;;;;;;5136874;28;20289;-65
2022/09/17 00:10:44;;;;;;;0.60;0.60;;;;;;;;;;5136702;28;20539;-64
2022/09/17 00:13:12;;;;;;;1.00;0.90;;;;;;;;;;5137106;28;20209;-64
2022/09/17 00:15:43;;;;;;;0.80;0.80;;;;;;;;;;5136811;28;20295;-65
2022/09/17 00:18:10;;;;;;;0.77;0.77;;;;;;;;;;5137434;28;20234;-65
2022/09/17 00:20:41;;;;;;;0.80;0.80;;;;;;;;;;5136647;28;20267;-65
2022/09/17 00:23:09;;;;;;;0.77;0.70;;;;;;;;;;5136304;28;20222;-65
2022/09/17 00:25:40;;;;;;;0.77;0.77;;;;;;;;;;5136696;28;20285;-65
2022/09/17 00:28:07;;;;;;;0.63;0.63;;;;;;;;;;5137963;27;20252;-65
2022/09/17 00:30:35;;;;;;;1.00;1.00;;;;;;;;;;5140480;27;20263;-65
2022/09/17 00:33:02;;;;;;;0.80;0.80;;;;;;;;;;5141221;27;20296;-65
2022/09/17 00:35:29;;;;;;;0.85;0.85;;;;;;;;;;5140172;27;20306;-65
2022/09/17 00:37:57;;;;;;;0.80;0.80;;;;;;;;;;5140962;27;20297;-65
2022/09/17 00:40:24;;;;;;;0.68;0.68;;;;;;;;;;5140690;27;20281;-65
2022/09/17 00:42:53;;;;;;;0.75;0.75;;;;;;;;;;5139972;27;20651;-65
2022/09/17 00:45:21;;;;;;;0.80;0.80;;;;;;;;;;5140861;27;20202;-65
2022/09/17 00:47:52;;;;;;;0.63;0.63;;;;;;;;;;5140482;27;20202;-64
2022/09/17 00:50:22;;;;;;;0.60;0.60;;;;;;;;;;5140722;27;20265;-64
2022/09/17 00:52:51;;;;;;;0.70;0.70;;;;;;;;;;5140324;27;20202;-65
2022/09/17 00:55:22;;;;;;;0.73;0.73;;;;;;;;;;5140792;27;20203;-65
2022/09/17 00:57:49;;;;;;;0.75;0.75;;;;;;;;;;5140891;27;20245;-65
2022/09/17 01:00:19;;;;;;;0.80;0.80;;;;;;;;;;5140883;27;20670;-65
2022/09/17 01:02:46;;;;;;;0.60;0.60;;;;;;;;;;5140693;27;20222;-65
2022/09/17 01:05:14;;;;;;;0.65;0.65;;;;;;;;;;5140703;27;20210;-65
2022/09/17 01:07:57;;;;;;;1.70;0.70;;;;;;;;;;5140698;27;20267;-65
2022/09/17 01:10:32;;;;;;;0.77;0.77;;;;;;;;;;5140753;27;20285;-65
2022/09/17 01:13:07;;;;;;;0.80;0.80;;;;;;;;;;5140196;27;20321;-65
2022/09/17 01:15:40;;;;;;;0.70;0.70;;;;;;;;;;5140749;27;20201;-65
2022/09/17 01:18:17;;;;;;;0.90;0.90;;;;;;;;;;5139725;27;20206;-64
2022/09/17 01:21:03;;;;;;;0.70;0.70;;;;;;;;;;5140646;27;20201;-65
2022/09/17 01:23:47;;;;;;;0.60;0.60;;;;;;;;;;5140247;27;20254;-65
2022/09/17 01:26:26;;;;;;;0.70;0.70;;;;;;;;;;5140146;27;20209;-65
2022/09/17 01:28:57;;;;;;;0.80;0.70;;;;;;;;;;5140183;27;20289;-65
2022/09/17 01:31:35;;;;;;;0.70;0.70;;;;;;;;;;5140441;27;20203;-64
2022/09/17 01:34:06;;;;;;;0.63;0.63;;;;;;;;;;5140362;27;20202;-65
2022/09/17 01:36:46;;;;;;;0.82;0.70;;;;;;;;;;5140403;27;20296;-65
2022/09/17 01:39:19;;;;;;;0.80;0.80;;;;;;;;;;5139825;27;20517;-65
2022/09/17 01:41:51;;;;;;;0.60;0.60;;;;;;;;;;5139902;27;20560;-65
2022/09/17 01:44:23;;;;;;;0.60;0.60;;;;;;;;;;5140213;27;20547;-65
2022/09/17 01:46:54;;;;;;;0.80;0.80;;;;;;;;;;5140370;27;20214;-65
2022/09/17 01:49:24;;;;;;;0.80;0.80;;;;;;;;;;5140510;27;20292;-65
2022/09/17 01:51:53;;;;;;;0.68;0.68;;;;;;;;;;5140073;27;20229;-65
2022/09/17 01:54:24;;;;;;;0.80;0.80;;;;;;;;;;5139852;27;20656;-65
2022/09/17 01:56:55;;;;;;;1.15;0.70;;;;;;;;;;5140420;27;20305;-65
2022/09/17 01:59:26;;;;;;;0.68;0.57;;;;;;;;;;5140300;27;20249;-65
2022/09/17 02:01:57;;;;;;;0.70;0.70;;;;;;;;;;5140475;27;20209;-65
2022/09/17 02:04:26;;;;;;;0.93;0.70;;;;;;;;;;5140328;27;20198;-64
2022/09/17 02:06:58;;;;;;;0.75;0.73;;;;;;;;;;5140427;27;20234;-64
2022/09/17 02:09:27;;;;;;;0.60;0.60;;;;;;;;;;5139951;27;20255;-64
2022/09/17 02:11:57;;;;;;;0.60;0.60;;;;;;;;;;5140451;27;20491;-64
2022/09/17 02:14:28;;;;;;;0.80;0.80;;;;;;;;;;5139855;27;20225;-65
2022/09/17 02:17:00;;;;;;;0.77;0.77;;;;;;;;;;5140497;27;20278;-65
2022/09/17 02:19:30;;;;;;;1.17;0.77;;;;;;;;;;5139924;27;20202;-64
2022/09/17 02:22:02;;;;;;;0.63;0.60;;;;;;;;;;5139581;27;20230;-64
2022/09/17 02:24:33;;;;;;;0.68;0.68;;;;;;;;;;5139872;27;20288;-65
2022/09/17 02:27:02;;;;;;;0.70;0.70;;;;;;;;;;5140205;27;20628;-65
2022/09/17 02:29:32;;;;;;;0.60;0.60;;;;;;;;;;5139982;27;20253;-65
2022/09/17 02:32:01;;;;;;;0.70;0.70;;;;;;;;;;5139707;27;20213;-65
2022/09/17 02:34:29;;;;;;;0.68;0.68;;;;;;;;;;5139968;27;20293;-65
2022/09/17 02:36:57;;;;;;;0.70;0.70;;;;;;;;;;5139153;27;20287;-65
2022/09/17 02:39:25;;;;;;;0.60;0.60;;;;;;;;;;5139746;27;20252;-65
2022/09/17 02:41:54;;;;;;;0.85;0.70;;;;;;;;;;5139149;27;20248;-65
2022/09/17 02:44:25;;;;;;;0.73;0.73;;;;;;;;;;5139405;27;20297;-65
2022/09/17 02:47:09;;;;;;;0.60;0.60;;;;;;;;;;5139188;27;20202;-65
2022/09/17 02:49:55;;;;;;;0.70;0.70;;;;;;;;;;5139281;27;20233;-65
2022/09/17 02:52:30;;;;;;;0.60;0.60;;;;;;;;;;5138929;27;20574;-65
2022/09/17 02:55:00;;;;;;;0.70;0.70;;;;;;;;;;5139552;27;20209;-65
2022/09/17 02:57:31;;;;;;;0.70;0.70;;;;;;;;;;5139167;27;20206;-65
2022/09/17 03:00:02;;;;;;;0.63;0.63;;;;;;;;;;5139112;27;20230;-64
2022/09/17 03:02:33;;;;;;;0.60;0.60;;;;;;;;;;5139041;27;20218;-64
2022/09/17 03:05:01;;;;;;;0.77;0.77;;;;;;;;;;5139092;27;20198;-65
2022/09/17 03:07:29;;;;;;;1.17;0.70;;;;;;;;;;5138923;27;20665;-65
2022/09/17 03:09:56;;;;;;;0.60;0.60;;;;;;;;;;5139191;27;20536;-65
2022/09/17 03:12:25;;;;;;;0.80;0.80;;;;;;;;;;5139476;27;20262;-65
2022/09/17 03:14:53;;;;;;;0.95;0.68;;;;;;;;;;5139140;27;20302;-65
2022/09/17 03:17:20;;;;;;;0.60;0.60;;;;;;;;;;5139110;27;20202;-65
2022/09/17 03:19:49;;;;;;;0.80;0.80;;;;;;;;;;5138881;27;20262;-65
2022/09/17 03:22:17;;;;;;;1.25;0.75;;;;;;;;;;5138955;27;20304;-65
2022/09/17 03:24:44;;;;;;;0.65;0.63;;;;;;;;;;5138798;27;20637;-65
2022/09/17 03:27:12;;;;;;;0.70;0.70;;;;;;;;;;5138934;27;20235;-65
2022/09/17 03:29:39;;;;;;;0.75;0.75;;;;;;;;;;5138953;27;20198;-65
2022/09/17 03:32:07;;;;;;;0.70;0.70;;;;;;;;;;5138838;27;20289;-65
2022/09/17 03:34:34;;;;;;;0.63;0.63;;;;;;;;;;5122535;28;20281;-65
2022/09/17 03:37:04;;;;;;;0.70;0.70;;;;;;;;;;5138664;27;20297;-65
2022/09/17 03:39:31;;;;;;;0.98;0.77;;;;;;;;;;5138673;27;20220;-65
2022/09/17 03:41:59;;;;;;;0.80;0.80;;;;;;;;;;5138415;28;20292;-65
2022/09/17 03:44:26;;;;;;;0.90;0.80;;;;;;;;;;5138523;28;20300;-65
2022/09/17 03:46:54;;;;;;;0.70;0.70;;;;;;;;;;5138840;28;20582;-65
2022/09/17 03:49:22;;;;;;;0.70;0.70;;;;;;;;;;5138454;28;20302;-65
2022/09/17 03:51:50;;;;;;;0.73;0.73;;;;;;;;;;5138031;28;20202;-65
2022/09/17 03:54:18;;;;;;;0.90;0.80;;;;;;;;;;5138469;28;20681;-65
2022/09/17 03:56:46;;;;;;;0.65;0.65;;;;;;;;;;5138985;28;20241;-65
2022/09/17 03:59:13;;;;;;;0.80;0.80;;;;;;;;;;5138416;28;20198;-65
2022/09/17 04:01:41;;;;;;;0.70;0.70;;;;;;;;;;5138294;27;20277;-65
2022/09/17 04:04:09;;;;;;;0.70;0.70;;;;;;;;;;5142705;27;20286;-65
2022/09/17 04:06:36;;;;;;;0.80;0.80;;;;;;;;;;5142606;27;20273;-65
2022/09/17 04:09:04;;;;;;;0.70;0.70;;;;;;;;;;5142194;27;20241;-66
2022/09/17 04:11:33;;;;;;;0.60;0.60;;;;;;;;;;5142328;27;20217;-65
2022/09/17 04:14:01;;;;;;;0.80;0.80;;;;;;;;;;5141956;27;20198;-65
2022/09/17 04:16:28;;;;;;;1.67;0.70;;;;;;;;;;5142268;27;20241;-65
2022/09/17 04:18:56;;;;;;;0.80;0.80;;;;;;;;;;5142440;27;20532;-65
2022/09/17 04:21:23;;;;;;;1.27;0.70;;;;;;;;;;5142378;27;20515;-65
2022/09/17 04:23:50;;;;;;;0.82;0.68;;;;;;;;;;5142117;27;20236;-65
2022/09/17 04:26:18;;;;;;;0.60;0.60;;;;;;;;;;5141893;27;20202;-65
2022/09/17 04:28:47;;;;;;;0.77;0.70;;;;;;;;;;5141495;27;20233;-65
2022/09/17 04:31:14;;;;;;;0.70;0.70;;;;;;;;;;5141755;27;20649;-65
2022/09/17 04:33:42;;;;;;;1.02;0.80;;;;;;;;;;5142047;27;20305;-65
2022/09/17 04:36:09;;;;;;;0.95;0.65;;;;;;;;;;5141669;27;20245;-65
2022/09/17 04:38:37;;;;;;;0.60;0.60;;;;;;;;;;5141895;27;20288;-65
2022/09/17 04:41:06;;;;;;;0.70;0.70;;;;;;;;;;5141901;27;20297;-65
2022/09/17 04:43:34;;;;;;;1.23;0.70;;;;;;;;;;5141326;27;20241;-65
2022/09/17 04:46:03;;;;;;;0.75;0.75;;;;;;;;;;5141509;27;20249;-65
2022/09/17 04:48:30;;;;;;;0.88;0.88;;;;;;;;;;5141237;27;20234;-65
2022/09/17 04:50:58;;;;;;;0.98;0.60;;;;;;;;;;5141448;27;20298;-65
2022/09/17 04:53:25;;;;;;;1.17;0.88;;;;;;;;;;5141087;27;20262;-65
2022/09/17 04:55:53;;;;;;;1.05;0.68;;;;;;;;;;5141248;27;20202;-65
2022/09/17 04:58:20;;;;;;;0.65;0.65;;;;;;;;;;5141334;27;20271;-65
2022/09/17 05:00:48;;;;;;;0.70;0.70;;;;;;;;;;5141310;27;20546;-65
2022/09/17 05:03:17;;;;;;;0.50;0.50;;;;;;;;;;5140910;27;20336;-65
2022/09/17 05:05:45;;;;;;;0.68;0.50;;;;;;;;;;5140782;27;20257;-65
2022/09/17 05:08:12;;;;;;;0.68;0.60;;;;;;;;;;5140828;27;20202;-65
2022/09/17 05:10:40;;;;;;;0.50;0.50;;;;;;;;;;5140322;27;20242;-65
2022/09/17 05:13:07;;;;;;;0.60;0.60;;;;;;;;;;5140780;27;20289;-65
2022/09/17 05:15:34;;;;;;;0.60;0.60;;;;;;;;;;5140023;27;20245;-65
2022/09/17 05:18:02;;;;;;;0.50;0.50;;;;;;;;;;5141001;27;20301;-65
2022/09/17 05:20:31;;;;;;;1.17;0.65;;;;;;;;;;5140408;27;20233;-65
2022/09/17 05:22:58;;;;;;;0.50;0.50;;;;;;;;;;5140702;27;20301;-65
2022/09/17 05:25:26;;;;;;;0.70;0.70;;;;;;;;;;5140529;27;20238;-65
2022/09/17 05:27:55;;;;;;;0.60;0.60;;;;;;;;;;5141211;27;20552;-65
2022/09/17 05:30:22;;;;;;;0.82;0.52;;;;;;;;;;5140740;27;20306;-65
2022/09/17 05:32:50;;;;;;;0.88;0.60;;;;;;;;;;5141277;27;20257;-65
2022/09/17 05:35:17;;;;;;;0.50;0.50;;;;;;;;;;5140753;27;20210;-65
2022/09/17 05:37:46;;;;;;;0.63;0.63;;;;;;;;;;5140797;27;20206;-65
2022/09/17 05:40:14;;;;;;;0.70;0.68;;;;;;;;;;5140353;27;20245;-65
2022/09/17 05:42:41;;;;;;;0.50;0.50;;;;;;;;;;5140161;27;20540;-65
2022/09/17 05:45:09;;;;;;;0.65;0.65;;;;;;;;;;5140537;27;20605;-65
2022/09/17 05:47:36;;;;;;;0.60;0.57;;;;;;;;;;5140398;27;20203;-65
2022/09/17 05:50:04;;;;;;;0.60;0.50;;;;;;;;;;5140627;27;20198;-65
2022/09/17 05:52:32;;;;;;;0.50;0.50;;;;;;;;;;5140035;27;20489;-65
2022/09/17 05:55:01;;;;;;;0.60;0.60;;;;;;;;;;5140184;27;20226;-65
2022/09/17 05:57:30;;;;;;;0.43;0.43;;;;;;;;;;5140092;27;20293;-65
2022/09/17 05:59:57;;;;;;;0.50;0.50;;;;;;;;;;5140422;27;20242;-65
2022/09/17 06:02:25;;;;;;;0.50;0.50;;;;;;;;;;5139640;27;20213;-65
2022/09/17 06:04:52;;;;;;;0.47;0.47;;;;;;;;;;5139186;27;20261;-65
2022/09/17 06:07:19;;;;;;;0.57;0.47;;;;;;;;;;5139664;27;20238;-65
2022/09/17 06:09:47;;;;;;;0.70;0.70;;;;;;;;;;5139723;27;20296;-65
2022/09/17 06:12:16;;;;;;;0.57;0.57;;;;;;;;;;5139762;27;20285;-65
2022/09/17 06:14:43;;;;;;;0.55;0.55;;;;;;;;;;5139747;27;20237;-65
2022/09/17 06:17:11;;;;;;;0.68;0.55;;;;;;;;;;5139312;27;20640;-65
2022/09/17 06:19:38;;;;;;;0.80;0.50;;;;;;;;;;5139337;27;20296;-65
2022/09/17 06:22:06;;;;;;;0.40;0.40;;;;;;;;;;5139775;27;20283;-65
2022/09/17 06:24:33;;;;;;;0.60;0.60;;;;;;;;;;5138207;27;20268;-65
2022/09/17 06:27:00;;;;;;;0.50;0.50;;;;;;;;;;5137834;27;20229;-65
2022/09/17 06:29:29;;;;;;;0.60;0.60;;;;;;;;;;5139014;27;20262;-65
2022/09/17 06:31:57;;;;;;;0.40;0.40;;;;;;;;;;5138729;27;20249;-65
2022/09/17 06:34:24;;;;;;;1.10;0.50;;;;;;;;;;5138734;27;20303;-65
2022/09/17 06:36:52;;;;;;;0.50;0.50;;;;;;;;;;5138369;27;20206;-65
2022/09/17 06:39:19;;;;;;;0.40;0.40;;;;;;;;;;5139176;27;20206;-65
2022/09/17 06:41:47;;;;;;;0.40;0.40;;;;;;;;;;5138430;27;20256;-65
2022/09/17 06:44:15;;;;;;;0.40;0.40;;;;;;;;;;5138553;27;20272;-65
2022/09/17 06:46:44;;;;;;;0.30;0.30;;;;;;;;;;5138067;27;20624;-65
2022/09/17 06:49:12;;;;;;;0.40;0.40;;;;;;;;;;5138284;27;20214;-65
2022/09/17 06:51:40;;;;;;;1.05;0.40;;;;;;;;;;5135946;27;20624;-65
2022/09/17 06:54:08;;;;;;;1.52;0.50;;;;;;;;;;5130273;27;20205;-65
2022/09/17 06:56:35;;;;;;;0.47;0.40;;;;;;;;;;5138309;27;20452;-65
2022/09/17 06:59:03;;;;;;;0.60;0.60;;;;;;;;;;5137729;27;20198;-65
2022/09/17 07:01:31;;;;;;;0.40;0.40;;;;;;;;;;5137505;27;20580;-65
2022/09/17 07:04:00;;;;;;;0.52;0.40;;;;;;;;;;5137537;27;20309;-65
2022/09/17 07:06:28;;;;;;;1.20;0.50;;;;;;;;;;5137661;27;20268;-65
2022/09/17 07:08:55;;;;;;;0.93;0.60;;;;;;;;;;5137901;27;20299;-65
2022/09/17 07:11:23;;;;;;;0.95;0.50;;;;;;;;;;5137741;27;20203;-65
2022/09/17 07:13:51;;;;;;;1.10;0.40;;;;;;;;;;5138383;27;20298;-65
2022/09/17 07:16:18;;;;;;;0.40;0.40;;;;;;;;;;5140865;27;20233;-65
2022/09/17 07:18:46;;;;;;;0.60;0.40;;;;;;;;;;5137691;27;20308;-65
2022/09/17 07:21:15;;;;;;;0.40;0.40;;;;;;;;;;5137836;27;20289;-65
2022/09/17 07:23:42;;;;;;;0.40;0.40;;;;;;;;;;5136904;27;20318;-65
2022/09/17 07:26:16;;;;;;;0.40;0.40;;;;;;;;;;5137051;27;20194;-65
2022/09/17 07:28:44;;;;;;;0.70;0.43;;;;;;;;;;5137774;27;20202;-65
2022/09/17 07:31:12;;;;;;;0.93;0.40;;;;;;;;;;5137496;27;20301;-65
2022/09/17 07:33:40;;;;;;;0.60;0.43;;;;;;;;;;5137489;27;20210;-65
2022/09/17 07:36:09;;;;;;;0.98;0.40;;;;;;;;;;5136963;27;20553;-65
2022/09/17 07:38:38;;;;;;;0.88;0.50;;;;;;;;;;5136677;27;20301;-65
2022/09/17 07:41:07;;;;;;;0.40;0.35;;;;;;;;;;5137016;27;20210;-65
2022/09/17 07:43:35;;;;;;;0.52;0.30;;;;;;;;;;5136959;28;20254;-66
2022/09/17 07:46:03;;;;;;;0.75;0.60;;;;;;;;;;5136739;28;20317;-65
2022/09/17 07:48:31;;;;;;;0.40;0.40;;;;;;;;;;5137126;28;20297;-65
2022/09/17 07:50:59;;;;;;;0.40;0.40;;;;;;;;;;5136907;28;20565;-65
2022/09/17 07:53:26;;;;;;;0.70;0.52;;;;;;;;;;5137101;28;20598;-65
2022/09/17 07:55:56;;;;;;;0.40;0.40;;;;;;;;;;5137426;28;20202;-65
2022/09/17 07:58:24;;;;;;;1.38;0.40;;;;;;;;;;5136207;28;20217;-65
2022/09/17 08:00:51;;;;;;;0.50;0.40;;;;;;;;;;5136442;28;20708;-65
2022/09/17 08:03:19;;;;;;;0.40;0.40;;;;;;;;;;5136183;28;20241;-65
2022/09/17 08:05:47;;;;;;;0.43;0.38;;;;;;;;;;5136227;28;20500;-66
2022/09/17 08:08:14;;;;;;;0.70;0.40;;;;;;;;;;5136822;28;20712;-65
2022/09/17 08:10:42;;;;;;;0.60;0.40;;;;;;;;;;5137658;28;20275;-65
2022/09/17 08:13:11;;;;;;;0.60;0.47;;;;;;;;;;5135719;28;20293;-65
2022/09/17 08:15:38;;;;;;;0.57;0.50;;;;;;;;;;5137145;28;20233;-65
2022/09/17 08:18:05;;;;;;;0.40;0.40;;;;;;;;;;5136103;28;20269;-65
2022/09/17 08:20:33;;;;;;;1.05;0.40;;;;;;;;;;5135760;28;20306;-65
2022/09/17 08:23:01;;;;;;;0.80;0.40;;;;;;;;;;5135666;27;20234;-65
2022/09/17 08:25:28;;;;;;;0.43;0.30;;;;;;;;;;5136104;28;20291;-65
2022/09/17 08:27:56;;;;;;;0.68;0.40;;;;;;;;;;5136203;28;20245;-65
2022/09/17 08:30:25;;;;;;;0.70;0.40;;;;;;;;;;5135863;28;20297;-65
2022/09/17 08:32:56;;;;;;;1.27;0.50;;;;;;;;;;5135363;28;20214;-65
2022/09/17 08:35:25;;;;;;;2.17;0.50;;;;;;;;;;5135067;28;20758;-65
2022/09/17 08:37:55;;;;;;;1.77;0.43;;;;;;;;;;5135901;28;20293;-65
2022/09/17 08:40:23;;;;;;;0.40;0.30;;;;;;;;;;5135607;28;20201;-65
2022/09/17 08:42:56;;;;;;;0.95;0.50;;;;;;;;;;5134883;28;20297;-65
2022/09/17 08:45:25;;;;;;;0.98;0.40;;;;;;;;;;5134653;28;20227;-65
2022/09/17 08:47:55;;;;;;;1.38;0.35;;;;;;;;;;5135745;27;20242;-65
2022/09/17 08:50:27;;;;;;;0.70;0.43;;;;;;;;;;5137500;27;20661;-65
2022/09/17 08:53:09;;;;;;;1.83;0.40;;;;;;;;;;5138854;27;20194;-65
2022/09/17 08:55:38;;;;;;;1.40;0.38;;;;;;;;;;5138549;27;20195;-65
2022/09/17 08:58:18;;;;;;;0.50;0.40;;;;;;;;;;5138438;27;20202;-65
2022/09/17 09:00:47;;;;;;;1.23;0.50;;;;;;;;;;5139070;27;20205;-65
2022/09/17 09:03:22;;;;;;;0.73;0.50;;;;;;;;;;5138595;27;20202;-65
2022/09/17 09:05:52;;;;;;;0.57;0.30;;;;;;;;;;5138686;27;20221;-65
2022/09/17 09:08:23;;;;;;;0.70;0.40;;;;;;;;;;5137672;27;20206;-65
2022/09/17 09:10:54;;;;;;;0.25;0.25;;;;;;;;;;5138587;27;20214;-65
2022/09/17 09:13:23;;;;;;;1.70;0.40;;;;;;;;;;5137943;27;20202;-65
2022/09/17 09:15:55;;;;;;;0.45;0.35;;;;;;;;;;5138556;27;20602;-65
2022/09/17 09:18:25;;;;;;;1.27;0.40;;;;;;;;;;5138173;27;20195;-65
2022/09/17 09:20:54;;;;;;;0.98;0.55;;;;;;;;;;5138452;27;20246;-65
2022/09/17 09:23:26;;;;;;;1.67;0.50;;;;;;;;;;5138218;27;20289;-65
2022/09/17 09:25:55;;;;;;;2.25;0.50;;;;;;;;;;5138431;27;20222;-65
2022/09/17 09:28:40;;;;;;;0.60;0.25;;;;;;;;;;5137646;27;20259;-65
2022/09/17 09:31:16;;;;;;;1.20;0.43;;;;;;;;;;5121666;27;20294;-65
2022/09/17 09:33:45;;;;;;;1.30;0.40;;;;;;;;;;5137955;27;20289;-65
2022/09/17 09:36:14;;;;;;;1.17;0.50;;;;;;;;;;5137940;27;20198;-65
2022/09/17 09:38:44;;;;;;;1.90;0.55;;;;;;;;;;5137407;27;20294;-65
2022/09/17 09:41:14;;;;;;;0.68;0.40;;;;;;;;;;5137764;27;20525;-65
2022/09/17 09:43:44;;;;;;;1.17;0.45;;;;;;;;;;5137480;27;20199;-65
2022/09/17 09:46:26;;;;;;;0.88;0.30;;;;;;;;;;5137801;27;20257;-65
2022/09/17 09:49:01;;;;;;;0.57;0.32;;;;;;;;;;5137882;27;20588;-65
2022/09/17 09:51:36;;;;;;;0.80;0.40;;;;;;;;;;5137352;27;20610;-65
2022/09/17 09:54:12;;;;;;;0.52;0.45;;;;;;;;;;5136973;27;20718;-65
2022/09/17 09:56:48;;;;;;;1.20;0.40;;;;;;;;;;5137395;27;20301;-65
2022/09/17 09:59:15;;;;;;;1.35;0.43;;;;;;;;;;5137479;27;20233;-65
2022/09/17 10:01:43;;;;;;;1.23;0.40;;;;;;;;;;5137172;27;20216;-65
2022/09/17 10:04:22;;;;;;;1.45;0.60;;;;;;;;;;5129873;27;20199;-65
2022/09/17 10:06:52;;;;;;;1.08;0.60;;;;;;;;;;5128235;27;20341;-65
2022/09/17 10:09:21;;;;;;;1.08;0.40;;;;;;;;;;5116411;28;20298;-65
2022/09/17 10:12:06;;;;;;;0.85;0.47;;;;;;;;;;5116578;28;20202;-65
2022/09/17 10:14:34;;;;;;;0.63;0.40;;;;;;;;;;5116211;28;20234;-66
2022/09/17 10:17:12;;;;;;;1.48;0.50;;;;;;;;;;5116380;28;20211;-65
2022/09/17 10:19:41;;;;;;;0.90;0.50;;;;;;;;;;5116826;28;20211;-65
2022/09/17 10:22:20;;;;;;;1.63;0.52;;;;;;;;;;5116747;28;20203;-65
2022/09/17 10:24:48;;;;;;;1.73;0.40;;;;;;;;;;5115653;28;20273;-65
2022/09/17 10:27:17;;;;;;;0.80;0.40;;;;;;;;;;5114224;28;20259;-65
2022/09/17 10:29:45;;;;;;;0.75;0.57;;;;;;;;;;5115108;28;20587;-65
2022/09/17 10:32:16;;;;;;;1.05;0.50;;;;;;;;;;5113948;28;20207;-65
2022/09/17 10:34:59;;;;;;;1.45;0.52;;;;;;;;;;5116001;28;20218;-65
2022/09/17 10:37:35;;;;;;;1.10;0.43;;;;;;;;;;5110331;28;20619;-65
2022/09/17 10:40:23;;;;;;;2.65;0.50;;;;;;;;;;5108435;28;20206;-65
2022/09/17 10:42:51;;;;;;;0.93;0.47;;;;;;;;;;5115324;28;20250;-65
2022/09/17 10:45:24;;;;;;;1.13;0.65;;;;;;;;;;5113357;28;20258;-65
2022/09/17 10:47:53;;;;;;;0.82;0.50;;;;;;;;;;5115031;28;20478;-65
2022/09/17 10:50:25;;;;;;;0.82;0.43;;;;;;;;;;5115836;28;20563;-65
2022/09/17 10:52:54;;;;;;;1.02;0.55;;;;;;;;;;5115482;28;20305;-65
2022/09/17 10:55:27;;;;;;;1.10;0.57;;;;;;;;;;5115568;28;20259;-65
2022/09/17 10:58:09;;;;;;;0.82;0.50;;;;;;;;;;5115972;28;20293;-65
2022/09/17 11:00:42;;;;;;;1.00;0.60;;;;;;;;;;5115287;27;20218;-65
2022/09/17 11:03:23;;;;;;;0.50;0.40;;;;;;;;;;5135789;27;20198;-65
2022/09/17 11:06:04;;;;;;;1.00;0.40;;;;;;;;;;5135462;27;20229;-65
2022/09/17 11:08:35;;;;;;;0.90;0.57;;;;;;;;;;5132957;27;20275;-65
2022/09/17 11:11:07;;;;;;;0.95;0.40;;;;;;;;;;5135538;27;20375;-65
2022/09/17 11:13:38;;;;;;;0.98;0.45;;;;;;;;;;5134944;27;20657;-65
2022/09/17 11:16:13;;;;;;;1.23;0.60;;;;;;;;;;5135336;27;20221;-65
2022/09/17 11:18:43;;;;;;;0.73;0.57;;;;;;;;;;5135770;27;20206;-65
2022/09/17 11:21:31;;;;;;;1.05;0.57;;;;;;;;;;5136261;27;20296;-65
2022/09/17 11:24:13;;;;;;;0.60;0.40;;;;;;;;;;5116703;27;20194;-65
2022/09/17 11:26:44;;;;;;;1.67;0.50;;;;;;;;;;5102653;28;20322;-65
2022/09/17 11:29:22;;;;;;;1.25;0.40;;;;;;;;;;5114322;28;20206;-65
2022/09/17 11:31:56;;;;;;;1.08;0.60;;;;;;;;;;5114928;28;20268;-65
2022/09/17 11:34:27;;;;;;;0.77;0.45;;;;;;;;;;5114983;28;20556;-65
2022/09/17 11:37:01;;;;;;;0.88;0.50;;;;;;;;;;5115098;28;20703;-65
2022/09/17 11:39:30;;;;;;;1.80;0.63;;;;;;;;;;5115982;28;20289;-65
2022/09/17 11:42:01;;;;;;;1.08;0.60;;;;;;;;;;5115053;28;20199;-66
2022/09/17 11:44:31;;;;;;;1.65;0.60;;;;;;;;;;5113982;28;20217;-66
2022/09/17 11:47:03;;;;;;;0.60;0.40;;;;;;;;;;5114816;28;20229;-66
2022/09/17 11:49:35;;;;;;;1.45;0.50;;;;;;;;;;5116482;28;20234;-66
2022/09/17 11:52:06;;;;;;;0.65;0.47;;;;;;;;;;5115212;28;20293;-66
2022/09/17 11:54:38;;;;;;;1.02;0.60;;;;;;;;;;5114270;28;20864;-66
2022/09/17 11:57:08;;;;;;;1.00;0.50;;;;;;;;;;5114348;28;20281;-66
2022/09/17 11:59:38;;;;;;;0.68;0.50;;;;;;;;;;5113872;28;20239;-66
2022/09/17 12:02:11;;;;;;;1.52;0.45;;;;;;;;;;5114035;28;20202;-66
2022/09/17 12:04:44;;;;;;;1.67;0.63;;;;;;;;;;5114568;28;20278;-66
2022/09/17 12:07:23;;;;;;;0.77;0.45;;;;;;;;;;5115248;28;20660;-66
2022/09/17 12:09:54;;;;;;;1.48;0.40;;;;;;;;;;5114132;28;20210;-66
2022/09/17 12:12:23;;;;;;;1.15;0.60;;;;;;;;;;5114599;28;20285;-66
2022/09/17 12:14:52;;;;;;;2.55;0.57;;;;;;;;;;5114525;28;20205;-66
2022/09/17 12:17:22;;;;;;;1.00;0.57;;;;;;;;;;5117252;28;20314;-66
2022/09/17 12:19:52;;;;;;;1.67;0.77;;;;;;;;;;5135606;28;20194;-66
2022/09/17 12:22:22;;;;;;;1.67;0.50;;;;;;;;;;5136147;28;20490;-66
2022/09/17 12:24:51;;;;;;;0.98;0.60;;;;;;;;;;5138012;27;20198;-66
2022/09/17 12:27:25;;;;;;;1.52;0.50;;;;;;;;;;5139046;27;20363;-66
2022/09/17 12:30:10;;;;;;;1.70;0.60;;;;;;;;;;5139266;27;20214;-66
2022/09/17 12:32:46;;;;;;;1.42;0.52;;;;;;;;;;5138935;27;20747;-66
2022/09/17 12:35:18;;;;;;;1.23;0.60;;;;;;;;;;5134163;27;20296;-66
2022/09/17 12:37:54;;;;;;;0.70;0.50;;;;;;;;;;5138190;27;20202;-66
2022/09/17 12:40:26;;;;;;;1.20;0.60;;;;;;;;;;5137596;27;20258;-66
2022/09/17 12:43:01;;;;;;;1.67;0.60;;;;;;;;;;5138876;27;20793;-66
2022/09/17 12:45:38;;;;;;;0.70;0.50;;;;;;;;;;5137790;27;20218;-66
2022/09/17 12:48:20;;;;;;;0.95;0.57;;;;;;;;;;5138153;27;20529;-66
2022/09/17 12:50:55;;;;;;;1.50;0.50;;;;;;;;;;5140584;27;20756;-66
2022/09/17 12:53:29;;;;;;;1.25;0.80;;;;;;;;;;5141769;27;20194;-66
2022/09/17 12:56:03;;;;;;;2.03;0.80;;;;;;;;;;5139168;27;20202;-66
2022/09/17 12:58:44;;;;;;;2.50;0.60;;;;;;;;;;5137585;27;20206;-66
2022/09/17 13:01:14;;;;;;;1.88;0.65;;;;;;;;;;5138294;27;20275;-66
2022/09/17 13:03:44;;;;;;;1.85;0.70;;;;;;;;;;5138784;27;20554;-66
2022/09/17 13:06:22;;;;;;;2.58;0.60;;;;;;;;;;5133476;27;20274;-66
2022/09/17 13:09:19;;;;;;;0.90;0.50;;;;;;;;;;5117153;28;20202;-66
2022/09/17 13:12:03;;;;;;;1.83;0.70;;;;;;;;;;5013462;28;20226;-66
2022/09/17 13:14:38;;;;;;;1.40;0.70;;;;;;;;;;5104688;28;20275;-66
2022/09/17 13:17:08;;;;;;;1.08;0.57;;;;;;;;;;5116219;28;20198;-66
2022/09/17 13:19:39;;;;;;;1.27;0.52;;;;;;;;;;5115886;28;20206;-66
2022/09/17 13:22:09;;;;;;;1.38;0.63;;;;;;;;;;5115830;28;20199;-66
2022/09/17 13:24:37;;;;;;;1.00;0.50;;;;;;;;;;5115674;28;20831;-66
2022/09/17 13:27:06;;;;;;;1.08;0.60;;;;;;;;;;5117228;28;20772;-66
2022/09/17 13:29:57;;;;;;;0.85;0.40;;;;;;;;;;5117794;28;20221;-66
2022/09/17 13:32:47;;;;;;;1.33;0.73;;;;;;;;;;5090698;28;20280;-66
2022/09/17 13:35:30;;;;;;;1.30;0.60;;;;;;;;;;5116456;28;20526;-65
2022/09/17 13:37:59;;;;;;;1.02;0.60;;;;;;;;;;5092276;28;20242;-66
2022/09/17 13:40:28;;;;;;;1.45;0.60;;;;;;;;;;5116351;28;20234;-66
2022/09/17 13:42:58;;;;;;;1.25;0.60;;;;;;;;;;5116482;28;20238;-66
2022/09/17 13:45:27;;;;;;;1.30;0.55;;;;;;;;;;5116569;28;20234;-66
2022/09/17 13:47:55;;;;;;;1.85;0.60;;;;;;;;;;5115913;28;20290;-66
2022/09/17 13:50:26;;;;;;;0.82;0.50;;;;;;;;;;5116642;28;20298;-65
2022/09/17 13:52:54;;;;;;;1.48;0.70;;;;;;;;;;5115847;28;20297;-66
2022/09/17 13:55:34;;;;;;;1.48;0.70;;;;;;;;;;5116438;28;20288;-66
2022/09/17 13:58:04;;;;;;;1.88;1.10;;;;;;;;;;5115549;28;20728;-66
2022/09/17 14:00:54;;;;;;;1.48;0.63;;;;;;;;;;5115699;28;20287;-66
2022/09/17 14:03:43;;;;;;;0.95;0.57;;;;;;;;;;5115658;28;20199;-66
2022/09/17 14:06:40;;;;;;;0.98;0.60;;;;;;;;;;5118812;27;20899;-66
2022/09/17 14:09:22;;;;;;;0.93;0.60;;;;;;;;;;5136072;27;20237;-66
2022/09/17 14:11:49;;;;;;;1.63;0.52;;;;;;;;;;5135490;27;20838;-66
2022/09/17 14:14:32;;;;;;;2.20;0.70;;;;;;;;;;5134654;27;20208;-66
2022/09/17 14:17:02;;;;;;;1.00;0.50;;;;;;;;;;5133744;27;20227;-66
2022/09/17 14:19:33;;;;;;;1.33;0.70;;;;;;;;;;5132516;27;20229;-66
2022/09/17 14:22:02;;;;;;;1.48;0.65;;;;;;;;;;5129766;27;20194;-66
2022/09/17 14:24:37;;;;;;;3.15;0.70;;;;;;;;;;5134651;27;20195;-66
2022/09/17 14:27:16;;;;;;;1.00;0.60;;;;;;;;;;5133505;27;20818;-66
2022/09/17 14:30:01;;;;;;;1.88;0.52;;;;;;;;;;5133484;27;20230;-66
2022/09/17 14:32:34;;;;;;;2.35;0.70;;;;;;;;;;5131855;27;20624;-66
2022/09/17 14:35:03;;;;;;;2.40;0.70;;;;;;;;;;5135115;27;20495;-66
2022/09/17 14:37:30;;;;;;;0.80;0.50;;;;;;;;;;5135013;27;20196;-66
2022/09/17 14:39:59;;;;;;;1.85;0.70;;;;;;;;;;5134764;27;20194;-66
2022/09/17 14:42:31;;;;;;;1.83;0.77;;;;;;;;;;5134048;27;20278;-66
2022/09/17 14:45:01;;;;;;;1.65;0.63;;;;;;;;;;5135093;27;20217;-66
2022/09/17 14:47:30;;;;;;;1.00;0.70;;;;;;;;;;5133143;27;20301;-66
2022/09/17 14:50:18;;;;;;;1.70;0.70;;;;;;;;;;5133751;27;20719;-66
2022/09/17 14:52:49;;;;;;;1.17;0.60;;;;;;;;;;5132262;27;20217;-66
2022/09/17 14:55:18;;;;;;;3.58;0.75;;;;;;;;;;5131845;27;20332;-66
2022/09/17 14:57:47;;;;;;;1.75;0.90;;;;;;;;;;5133755;27;20194;-66
2022/09/17 15:00:20;;;;;;;2.58;0.60;;;;;;;;;;5133048;27;20190;-66
2022/09/17 15:02:54;;;;;;;1.77;0.73;;;;;;;;;;5130291;27;20519;-66
2022/09/17 15:05:30;;;;;;;0.60;0.40;;;;;;;;;;5133946;27;20195;-66